sensor_id;sensor_type;location;lat;lon;timestamp;pressure;altitude;pressure_sealevel;temperature;humidity
75656;BME280;64252;51.094;13.714;2022-12-10T00:00:39;99517.41;;;1.11;87.01
75656;BME280;64252;51.094;13.714;2022-12-10T00:03:04;99518.09;;;1.08;86.57
75656;BME280;64252;51.094;13.714;2022-12-10T00:05:33;99519.84;;;1.12;86.66
75656;BME280;64252;51.094;13.714;2022-12-10T00:07:59;99511.03;;;1.10;86.68
75656;BME280;64252;51.094;13.714;2022-12-10T00:10:24;99509.53;;;1.13;86.59
75656;BME280;64252;51.094;13.714;2022-12-10T00:12:50;99512.56;;;1.08;86.43
75656;BME280;64252;51.094;13.714;2022-12-10T00:15:15;99505.81;;;1.09;86.73
75656;BME280;64252;51.094;13.714;2022-12-10T00:17:41;99512.56;;;1.08;87.03
75656;BME280;64252;51.094;13.714;2022-12-10T00:20:08;99506.50;;;1.06;86.66
75656;BME280;64252;51.094;13.714;2022-12-10T00:22:34;99510.81;;;1.03;86.38
75656;BME280;64252;51.094;13.714;2022-12-10T00:24:59;99502.81;;;1.02;86.00
75656;BME280;64252;51.094;13.714;2022-12-10T00:27:25;99506.75;;;1.01;86.56
75656;BME280;64252;51.094;13.714;2022-12-10T00:29:50;99513.44;;;1.00;86.90
75656;BME280;64252;51.094;13.714;2022-12-10T00:32:16;99522.72;;;1.04;86.70
75656;BME280;64252;51.094;13.714;2022-12-10T00:34:41;99514.84;;;1.06;86.85
75656;BME280;64252;51.094;13.714;2022-12-10T00:37:07;99512.31;;;1.01;86.05
75656;BME280;64252;51.094;13.714;2022-12-10T00:39:32;99521.94;;;1.03;86.08
75656;BME280;64252;51.094;13.714;2022-12-10T00:41:58;99519.81;;;1.00;86.21
75656;BME280;64252;51.094;13.714;2022-12-10T00:44:24;99506.97;;;0.96;86.22
75656;BME280;64252;51.094;13.714;2022-12-10T00:46:50;99522.97;;;0.99;86.87
75656;BME280;64252;51.094;13.714;2022-12-10T00:49:16;99509.84;;;0.99;86.54
75656;BME280;64252;51.094;13.714;2022-12-10T00:51:41;99520.19;;;0.99;86.09
75656;BME280;64252;51.094;13.714;2022-12-10T00:54:07;99518.56;;;0.98;86.82
75656;BME280;64252;51.094;13.714;2022-12-10T00:56:33;99516.94;;;0.97;86.80
75656;BME280;64252;51.094;13.714;2022-12-10T00:59:00;99515.31;;;0.96;86.37
75656;BME280;64252;51.094;13.714;2022-12-10T01:01:38;99522.03;;;0.95;86.95
75656;BME280;64252;51.094;13.714;2022-12-10T01:04:07;99516.00;;;0.93;86.76
75656;BME280;64252;51.094;13.714;2022-12-10T01:06:36;99520.75;;;0.92;86.53
75656;BME280;64252;51.094;13.714;2022-12-10T01:09:06;99527.13;;;0.93;87.04
75656;BME280;64252;51.094;13.714;2022-12-10T01:11:35;99529.44;;;0.91;87.20
75656;BME280;64252;51.094;13.714;2022-12-10T01:14:05;99527.00;;;0.89;87.00
75656;BME280;64252;51.094;13.714;2022-12-10T01:16:31;99519.94;;;0.92;87.11
75656;BME280;64252;51.094;13.714;2022-12-10T01:18:57;99526.44;;;0.96;86.87
75656;BME280;64252;51.094;13.714;2022-12-10T01:21:27;99525.50;;;0.92;87.09
75656;BME280;64252;51.094;13.714;2022-12-10T01:23:53;99531.06;;;0.92;87.17
75656;BME280;64252;51.094;13.714;2022-12-10T01:26:22;99524.69;;;0.91;86.82
75656;BME280;64252;51.094;13.714;2022-12-10T01:28:48;99537.09;;;0.94;87.01
75656;BME280;64252;51.094;13.714;2022-12-10T01:31:18;99528.06;;;0.84;86.74
75656;BME280;64252;51.094;13.714;2022-12-10T01:33:44;99524.81;;;0.82;87.14
75656;BME280;64252;51.094;13.714;2022-12-10T01:36:13;99528.38;;;0.83;87.33
75656;BME280;64252;51.094;13.714;2022-12-10T01:38:40;99530.84;;;0.84;87.00
75656;BME280;64252;51.094;13.714;2022-12-10T01:41:08;99542.63;;;0.81;87.33
75656;BME280;64252;51.094;13.714;2022-12-10T01:46:27;99542.63;;;0.81;86.98
75656;BME280;64252;51.094;13.714;2022-12-10T01:48:55;99548.19;;;0.81;87.36
75656;BME280;64252;51.094;13.714;2022-12-10T01:51:22;99548.19;;;0.81;87.00
75656;BME280;64252;51.094;13.714;2022-12-10T01:53:49;99547.03;;;0.82;87.70
75656;BME280;64252;51.094;13.714;2022-12-10T01:56:16;99539.50;;;0.83;87.35
75656;BME280;64252;51.094;13.714;2022-12-10T01:58:43;99525.28;;;0.84;87.15
75656;BME280;64252;51.094;13.714;2022-12-10T02:03:55;99535.44;;;0.80;87.12
75656;BME280;64252;51.094;13.714;2022-12-10T02:09:35;99539.41;;;0.79;87.72
75656;BME280;64252;51.094;13.714;2022-12-10T02:15:15;99535.00;;;0.78;87.11
75656;BME280;64252;51.094;13.714;2022-12-10T02:17:57;99531.88;;;0.80;87.48
75656;BME280;64252;51.094;13.714;2022-12-10T02:25:26;99523.88;;;0.78;86.83
75656;BME280;64252;51.094;13.714;2022-12-10T02:28:17;99527.81;;;0.77;87.95
75656;BME280;64252;51.094;13.714;2022-12-10T02:30:45;99526.31;;;0.80;87.85
75656;BME280;64252;51.094;13.714;2022-12-10T02:33:13;99524.69;;;0.79;87.13
75656;BME280;64252;51.094;13.714;2022-12-10T02:35:40;99529.75;;;0.77;86.74
75656;BME280;64252;51.094;13.714;2022-12-10T02:38:23;99525.72;;;0.74;86.97
75656;BME280;64252;51.094;13.714;2022-12-10T02:40:53;99516.22;;;0.75;87.00
75656;BME280;64252;51.094;13.714;2022-12-10T02:43:23;99519.69;;;0.72;88.12
75656;BME280;64252;51.094;13.714;2022-12-10T02:45:50;99520.03;;;0.71;87.55
75656;BME280;64252;51.094;13.714;2022-12-10T02:48:18;99521.75;;;0.75;87.46
75656;BME280;64252;51.094;13.714;2022-12-10T02:50:44;99525.25;;;0.72;87.53
75656;BME280;64252;51.094;13.714;2022-12-10T02:53:09;99530.34;;;0.70;87.83
75656;BME280;64252;51.094;13.714;2022-12-10T03:04:42;99535.22;;;0.73;88.41
75656;BME280;64252;51.094;13.714;2022-12-10T03:07:18;99546.31;;;0.73;87.96
75656;BME280;64252;51.094;13.714;2022-12-10T03:09:52;99533.13;;;0.70;87.63
75656;BME280;64252;51.094;13.714;2022-12-10T03:12:29;99542.25;;;0.71;87.78
75656;BME280;64252;51.094;13.714;2022-12-10T03:15:01;99542.94;;;0.68;87.60
75656;BME280;64252;51.094;13.714;2022-12-10T03:17:29;99547.69;;;0.67;87.56
75656;BME280;64252;51.094;13.714;2022-12-10T03:19:57;99540.88;;;0.65;87.71
75656;BME280;64252;51.094;13.714;2022-12-10T03:22:24;99552.31;;;0.63;87.33
75656;BME280;64252;51.094;13.714;2022-12-10T03:24:50;99552.31;;;0.63;88.27
75656;BME280;64252;51.094;13.714;2022-12-10T03:27:19;99551.63;;;0.66;87.34
75656;BME280;64252;51.094;13.714;2022-12-10T03:29:51;99538.53;;;0.67;87.23
75656;BME280;64252;51.094;13.714;2022-12-10T03:32:18;99547.69;;;0.67;87.82
75656;BME280;64252;51.094;13.714;2022-12-10T03:34:45;99545.38;;;0.69;88.07
75656;BME280;64252;51.094;13.714;2022-12-10T03:37:12;99552.56;;;0.70;88.36
75656;BME280;64252;51.094;13.714;2022-12-10T03:39:40;99556.28;;;0.74;87.79
75656;BME280;64252;51.094;13.714;2022-12-10T03:42:06;99557.88;;;0.75;87.59
75656;BME280;64252;51.094;13.714;2022-12-10T03:44:34;99561.38;;;0.72;87.39
75656;BME280;64252;51.094;13.714;2022-12-10T03:47:01;99559.06;;;0.74;87.65
75656;BME280;64252;51.094;13.714;2022-12-10T03:49:27;99549.81;;;0.70;87.14
75656;BME280;64252;51.094;13.714;2022-12-10T03:51:53;99547.94;;;0.74;87.76
75656;BME280;64252;51.094;13.714;2022-12-10T03:54:18;99544.00;;;0.75;87.42
75656;BME280;64252;51.094;13.714;2022-12-10T03:56:46;99547.13;;;0.74;87.27
75656;BME280;64252;51.094;13.714;2022-12-10T03:59:11;99538.19;;;0.68;87.17
75656;BME280;64252;51.094;13.714;2022-12-10T04:01:37;99539.03;;;0.69;87.66
75656;BME280;64252;51.094;13.714;2022-12-10T04:04:04;99543.75;;;0.68;87.52
75656;BME280;64252;51.094;13.714;2022-12-10T04:06:29;99546.31;;;0.73;87.28
75656;BME280;64252;51.094;13.714;2022-12-10T04:08:55;99540.75;;;0.73;87.47
75656;BME280;64252;51.094;13.714;2022-12-10T04:11:20;99546.31;;;0.73;87.06
75656;BME280;64252;51.094;13.714;2022-12-10T04:13:46;99552.56;;;0.70;87.21
75656;BME280;64252;51.094;13.714;2022-12-10T04:16:32;99544.47;;;0.65;87.44
75656;BME280;64252;51.094;13.714;2022-12-10T04:19:05;99545.59;;;0.64;87.63
75656;BME280;64252;51.094;13.714;2022-12-10T04:21:33;99543.53;;;0.61;87.47
75656;BME280;64252;51.094;13.714;2022-12-10T04:24:20;99555.56;;;0.65;88.38
75656;BME280;64252;51.094;13.714;2022-12-10T04:27:13;99548.72;;;0.63;87.27
75656;BME280;64252;51.094;13.714;2022-12-10T04:29:41;99554.16;;;0.59;87.40
75656;BME280;64252;51.094;13.714;2022-12-10T04:32:07;99558.91;;;0.59;87.78
75656;BME280;64252;51.094;13.714;2022-12-10T04:34:32;99549.75;;;0.58;87.94
75656;BME280;64252;51.094;13.714;2022-12-10T04:36:59;99551.50;;;0.63;88.01
75656;BME280;64252;51.094;13.714;2022-12-10T04:39:25;99553.13;;;0.64;88.23
75656;BME280;64252;51.094;13.714;2022-12-10T04:41:51;99546.75;;;0.63;87.81
75656;BME280;64252;51.094;13.714;2022-12-10T04:44:18;99549.53;;;0.63;87.97
75656;BME280;64252;51.094;13.714;2022-12-10T04:46:44;99550.69;;;0.62;87.49
75656;BME280;64252;51.094;13.714;2022-12-10T04:49:10;99548.28;;;0.61;87.75
75656;BME280;64252;51.094;13.714;2022-12-10T04:51:36;99542.72;;;0.61;88.52
75656;BME280;64252;51.094;13.714;2022-12-10T04:54:01;99549.09;;;0.61;88.10
75656;BME280;64252;51.094;13.714;2022-12-10T04:56:27;99532.41;;;0.61;88.77
75656;BME280;64252;51.094;13.714;2022-12-10T04:58:55;99538.31;;;0.60;88.37
75656;BME280;64252;51.094;13.714;2022-12-10T05:01:21;99540.28;;;0.59;88.09
75656;BME280;64252;51.094;13.714;2022-12-10T05:03:46;99535.66;;;0.63;87.80
75656;BME280;64252;51.094;13.714;2022-12-10T05:06:14;99538.41;;;0.63;88.27
75656;BME280;64252;51.094;13.714;2022-12-10T05:08:40;99537.97;;;0.61;88.32
75656;BME280;64252;51.094;13.714;2022-12-10T05:11:10;99537.16;;;0.61;88.17
75656;BME280;64252;51.094;13.714;2022-12-10T05:13:36;99536.34;;;0.60;88.30
75656;BME280;64252;51.094;13.714;2022-12-10T05:16:04;99544.19;;;0.58;88.30
75656;BME280;64252;51.094;13.714;2022-12-10T05:18:30;99534.59;;;0.56;88.79
75656;BME280;64252;51.094;13.714;2022-12-10T05:21:00;99540.97;;;0.56;88.56
75656;BME280;64252;51.094;13.714;2022-12-10T05:23:26;99546.38;;;0.53;88.67
75656;BME280;64252;51.094;13.714;2022-12-10T05:28:30;99543.38;;;0.58;88.82
75656;BME280;64252;51.094;13.714;2022-12-10T05:30:56;99541.91;;;0.60;88.84
75656;BME280;64252;51.094;13.714;2022-12-10T05:33:25;99541.41;;;0.58;88.71
75656;BME280;64252;51.094;13.714;2022-12-10T05:35:58;99539.56;;;0.62;88.38
75656;BME280;64252;51.094;13.714;2022-12-10T05:38:25;99538.41;;;0.63;88.44
75656;BME280;64252;51.094;13.714;2022-12-10T05:40:51;99537.97;;;0.61;88.12
75656;BME280;64252;51.094;13.714;2022-12-10T05:43:17;99548.13;;;0.57;88.42
75656;BME280;64252;51.094;13.714;2022-12-10T05:45:43;99548.69;;;0.51;89.29
75656;BME280;64252;51.094;13.714;2022-12-10T05:48:10;99552.28;;;0.51;88.71
75656;BME280;64252;51.094;13.714;2022-12-10T05:50:36;99545.94;;;0.51;89.36
75656;BME280;64252;51.094;13.714;2022-12-10T05:53:02;99550.66;;;0.50;89.43
75656;BME280;64252;51.094;13.714;2022-12-10T05:55:27;99557.38;;;0.49;89.51
75656;BME280;64252;51.094;13.714;2022-12-10T05:57:55;99552.97;;;0.48;89.45
75656;BME280;64252;51.094;13.714;2022-12-10T06:00:20;99552.50;;;0.46;89.06
75656;BME280;64252;51.094;13.714;2022-12-10T06:02:49;99550.06;;;0.44;89.38
75656;BME280;64252;51.094;13.714;2022-12-10T06:05:16;99555.28;;;0.46;89.80
75656;BME280;64252;51.094;13.714;2022-12-10T06:07:41;99553.31;;;0.47;89.76
75656;BME280;64252;51.094;13.714;2022-12-10T06:10:07;99558.06;;;0.46;89.08
75656;BME280;64252;51.094;13.714;2022-12-10T06:12:33;99553.66;;;0.45;89.16
75656;BME280;64252;51.094;13.714;2022-12-10T06:14:59;99559.53;;;0.43;89.20
75656;BME280;64252;51.094;13.714;2022-12-10T06:17:24;99565.91;;;0.44;89.75
75656;BME280;64252;51.094;13.714;2022-12-10T06:19:50;99562.69;;;0.42;89.85
75656;BME280;64252;51.094;13.714;2022-12-10T06:22:15;99561.06;;;0.41;89.89
75656;BME280;64252;51.094;13.714;2022-12-10T06:24:41;99569.16;;;0.46;89.06
75656;BME280;64252;51.094;13.714;2022-12-10T06:27:06;99573.91;;;0.46;89.55
75656;BME280;64252;51.094;13.714;2022-12-10T06:29:32;99570.81;;;0.47;89.15
75656;BME280;64252;51.094;13.714;2022-12-10T06:31:57;99563.47;;;0.42;89.20
75656;BME280;64252;51.094;13.714;2022-12-10T06:34:23;99572.97;;;0.41;89.50
75656;BME280;64252;51.094;13.714;2022-12-10T06:36:49;99577.72;;;0.41;89.10
75656;BME280;64252;51.094;13.714;2022-12-10T06:39:14;99575.38;;;0.43;89.86
75656;BME280;64252;51.094;13.714;2022-12-10T06:41:40;99580.13;;;0.42;89.26
75656;BME280;64252;51.094;13.714;2022-12-10T06:44:10;99578.16;;;0.43;89.28
75656;BME280;64252;51.094;13.714;2022-12-10T06:46:36;99582.78;;;0.39;89.17
75656;BME280;64252;51.094;13.714;2022-12-10T06:49:02;99581.75;;;0.43;89.63
75656;BME280;64252;51.094;13.714;2022-12-10T06:51:28;99584.91;;;0.42;89.27
75656;BME280;64252;51.094;13.714;2022-12-10T06:53:54;99588.81;;;0.41;90.40
75656;BME280;64252;51.094;13.714;2022-12-10T06:56:20;99587.88;;;0.37;89.33
75656;BME280;64252;51.094;13.714;2022-12-10T06:58:46;99592.63;;;0.36;90.06
75656;BME280;64252;51.094;13.714;2022-12-10T07:01:15;99596.22;;;0.37;90.04
75656;BME280;64252;51.094;13.714;2022-12-10T07:03:42;99602.22;;;0.39;89.68
75656;BME280;64252;51.094;13.714;2022-12-10T07:06:09;99600.59;;;0.38;90.26
75656;BME280;64252;51.094;13.714;2022-12-10T07:08:36;99590.09;;;0.43;89.64
75656;BME280;64252;51.094;13.714;2022-12-10T07:11:06;99594.16;;;0.46;89.55
75656;BME280;64252;51.094;13.714;2022-12-10T07:13:32;99603.97;;;0.43;89.57
75656;BME280;64252;51.094;13.714;2022-12-10T07:15:58;99598.28;;;0.40;90.28
75656;BME280;64252;51.094;13.714;2022-12-10T07:18:24;99611.69;;;0.38;90.46
75656;BME280;64252;51.094;13.714;2022-12-10T07:20:49;99592.25;;;0.38;90.34
75656;BME280;64252;51.094;13.714;2022-12-10T07:23:15;99605.47;;;0.41;90.18
75656;BME280;64252;51.094;13.714;2022-12-10T07:25:40;99601.75;;;0.37;91.01
75656;BME280;64252;51.094;13.714;2022-12-10T07:28:06;99611.03;;;0.41;90.94
75656;BME280;64252;51.094;13.714;2022-12-10T07:30:32;99611.25;;;0.36;90.45
75656;BME280;64252;51.094;13.714;2022-12-10T07:32:57;99612.50;;;0.38;90.84
75656;BME280;64252;51.094;13.714;2022-12-10T07:35:23;99615.28;;;0.38;90.66
75656;BME280;64252;51.094;13.714;2022-12-10T07:37:48;99616.78;;;0.36;90.98
75656;BME280;64252;51.094;13.714;2022-12-10T07:40:14;99611.25;;;0.36;90.87
75656;BME280;64252;51.094;13.714;2022-12-10T07:42:39;99614.03;;;0.36;90.52
75656;BME280;64252;51.094;13.714;2022-12-10T07:45:05;99620.72;;;0.35;91.12
75656;BME280;64252;51.094;13.714;2022-12-10T07:47:31;99619.09;;;0.34;90.28
75656;BME280;64252;51.094;13.714;2022-12-10T07:49:59;99616.31;;;0.34;90.92
75656;BME280;64252;51.094;13.714;2022-12-10T07:52:25;99617.81;;;0.31;90.47
75656;BME280;64252;51.094;13.714;2022-12-10T07:54:50;99622.56;;;0.31;90.82
75656;BME280;64252;51.094;13.714;2022-12-10T07:57:16;99626.75;;;0.37;90.66
75656;BME280;64252;51.094;13.714;2022-12-10T07:59:41;99625.38;;;0.43;90.74
75656;BME280;64252;51.094;13.714;2022-12-10T08:02:08;99621.94;;;0.46;90.72
75656;BME280;64252;51.094;13.714;2022-12-10T08:04:34;99615.22;;;0.47;90.25
75656;BME280;64252;51.094;13.714;2022-12-10T08:06:59;99615.22;;;0.47;90.01
75656;BME280;64252;51.094;13.714;2022-12-10T08:09:25;99619.50;;;0.44;90.60
75656;BME280;64252;51.094;13.714;2022-12-10T08:11:52;99620.78;;;0.47;90.39
75656;BME280;64252;51.094;13.714;2022-12-10T08:14:18;99621.56;;;0.48;90.70
75656;BME280;64252;51.094;13.714;2022-12-10T08:16:43;99618.44;;;0.37;89.92
75656;BME280;64252;51.094;13.714;2022-12-10T08:19:09;99625.13;;;0.36;90.65
75656;BME280;64252;51.094;13.714;2022-12-10T08:21:34;99629.03;;;0.35;91.31
75656;BME280;64252;51.094;13.714;2022-12-10T08:26:28;99637.03;;;0.36;90.26
75656;BME280;64252;51.094;13.714;2022-12-10T08:28:54;99634.59;;;0.35;90.48
75656;BME280;64252;51.094;13.714;2022-12-10T08:31:22;99628.91;;;0.31;90.90
75656;BME280;64252;51.094;13.714;2022-12-10T08:33:49;99633.66;;;0.31;90.63
75656;BME280;64252;51.094;13.714;2022-12-10T08:36:16;99642.94;;;0.35;90.58
75656;BME280;64252;51.094;13.714;2022-12-10T08:38:43;99636.22;;;0.36;90.35
75656;BME280;64252;51.094;13.714;2022-12-10T08:41:27;99630.69;;;0.36;91.08
75656;BME280;64252;51.094;13.714;2022-12-10T08:43:53;99635.28;;;0.32;91.31
75656;BME280;64252;51.094;13.714;2022-12-10T08:46:19;99636.75;;;0.29;91.38
75656;BME280;64252;51.094;13.714;2022-12-10T08:48:45;99639.22;;;0.31;91.57
75656;BME280;64252;51.094;13.714;2022-12-10T08:51:14;99646.41;;;0.32;90.83
75656;BME280;64252;51.094;13.714;2022-12-10T08:53:39;99648.69;;;0.30;91.17
75656;BME280;64252;51.094;13.714;2022-12-10T08:56:05;99645.47;;;0.28;91.34
75656;BME280;64252;51.094;13.714;2022-12-10T08:58:31;99648.03;;;0.33;91.39
75656;BME280;64252;51.094;13.714;2022-12-10T09:00:57;99650.13;;;0.36;90.89
75656;BME280;64252;51.094;13.714;2022-12-10T09:03:22;99652.81;;;0.44;90.95
75656;BME280;64252;51.094;13.714;2022-12-10T09:05:49;99649.72;;;0.46;90.42
75656;BME280;64252;51.094;13.714;2022-12-10T09:08:14;99652.47;;;0.46;89.83
75656;BME280;64252;51.094;13.714;2022-12-10T09:10:40;99656.00;;;0.55;89.94
75656;BME280;64252;51.094;13.714;2022-12-10T09:13:06;99662.00;;;0.57;89.92
75656;BME280;64252;51.094;13.714;2022-12-10T09:15:32;99665.00;;;0.52;89.91
75656;BME280;64252;51.094;13.714;2022-12-10T09:17:58;99658.56;;;0.60;89.69
75656;BME280;64252;51.094;13.714;2022-12-10T09:20:23;99663.56;;;0.67;88.59
75656;BME280;64252;51.094;13.714;2022-12-10T09:22:49;99660.94;;;0.70;89.30
75656;BME280;64252;51.094;13.714;2022-12-10T09:25:15;99662.19;;;0.73;89.07
75656;BME280;64252;51.094;13.714;2022-12-10T09:27:43;99656.53;;;0.69;89.17
75656;BME280;64252;51.094;13.714;2022-12-10T09:30:10;99661.16;;;0.77;89.13
75656;BME280;64252;51.094;13.714;2022-12-10T09:32:36;99652.63;;;0.82;88.41
75656;BME280;64252;51.094;13.714;2022-12-10T09:35:01;99651.00;;;0.81;87.35
75656;BME280;64252;51.094;13.714;2022-12-10T09:37:27;99652.13;;;0.80;87.25
75656;BME280;64252;51.094;13.714;2022-12-10T09:39:53;99658.66;;;0.84;87.98
75656;BME280;64252;51.094;13.714;2022-12-10T09:42:32;99668.16;;;0.83;88.08
75656;BME280;64252;51.094;13.714;2022-12-10T09:47:31;99662.81;;;0.78;88.88
75656;BME280;64252;51.094;13.714;2022-12-10T09:50:12;99658.28;;;0.74;88.38
75656;BME280;64252;51.094;13.714;2022-12-10T09:52:43;99655.13;;;0.75;88.32
75656;BME280;64252;51.094;13.714;2022-12-10T09:55:19;99651.34;;;0.80;88.51
75656;BME280;64252;51.094;13.714;2022-12-10T09:57:51;99648.91;;;0.78;88.30
75656;BME280;64252;51.094;13.714;2022-12-10T10:00:38;99646.59;;;0.80;88.59
75656;BME280;64252;51.094;13.714;2022-12-10T10:03:05;99651.34;;;0.80;88.64
75656;BME280;64252;51.094;13.714;2022-12-10T10:05:33;99647.81;;;0.71;88.84
75656;BME280;64252;51.094;13.714;2022-12-10T10:08:03;99650.25;;;0.72;89.54
75656;BME280;64252;51.094;13.714;2022-12-10T10:10:34;99652.59;;;0.70;88.92
75656;BME280;64252;51.094;13.714;2022-12-10T10:15:34;99654.66;;;0.61;89.09
75656;BME280;64252;51.094;13.714;2022-12-10T10:18:32;99648.81;;;0.54;88.99
75656;BME280;64252;51.094;13.714;2022-12-10T10:21:00;99639.06;;;0.48;89.64
75656;BME280;64252;51.094;13.714;2022-12-10T10:23:26;99648.06;;;0.45;89.91
75656;BME280;64252;51.094;13.714;2022-12-10T10:25:51;99647.34;;;0.36;90.57
75656;BME280;64252;51.094;13.714;2022-12-10T10:28:20;99640.84;;;0.32;90.96
75656;BME280;64252;51.094;13.714;2022-12-10T10:30:46;99646.19;;;0.37;90.87
75656;BME280;64252;51.094;13.714;2022-12-10T10:33:14;99643.41;;;0.37;89.83
75656;BME280;64252;51.094;13.714;2022-12-10T10:35:46;99656.94;;;0.38;89.83
75656;BME280;64252;51.094;13.714;2022-12-10T10:38:17;99641.22;;;0.42;89.75
75656;BME280;64252;51.094;13.714;2022-12-10T10:40:49;99642.53;;;0.45;89.45
75656;BME280;64252;51.094;13.714;2022-12-10T10:43:27;99643.06;;;0.38;89.65
75656;BME280;64252;51.094;13.714;2022-12-10T10:46:25;99636.56;;;0.34;90.11
75656;BME280;64252;51.094;13.714;2022-12-10T10:48:51;99636.22;;;0.36;89.93
75656;BME280;64252;51.094;13.714;2022-12-10T10:51:22;99635.75;;;0.34;89.71
75656;BME280;64252;51.094;13.714;2022-12-10T10:53:49;99632.84;;;0.30;89.44
75656;BME280;64252;51.094;13.714;2022-12-10T10:56:22;99642.47;;;0.33;89.75
75656;BME280;64252;51.094;13.714;2022-12-10T10:59:05;99637.03;;;0.36;89.56
75656;BME280;64252;51.094;13.714;2022-12-10T11:01:47;99632.09;;;0.42;89.21
75656;BME280;64252;51.094;13.714;2022-12-10T11:04:15;99630.69;;;0.36;89.23
75656;BME280;64252;51.094;13.714;2022-12-10T11:06:42;99640.84;;;0.32;89.22
75656;BME280;64252;51.094;13.714;2022-12-10T11:09:20;99639.22;;;0.31;89.88
75656;BME280;64252;51.094;13.714;2022-12-10T11:11:50;99634.16;;;0.33;90.08
75656;BME280;64252;51.094;13.714;2022-12-10T11:16:48;99650.84;;;0.45;89.04
75656;BME280;64252;51.094;13.714;2022-12-10T11:19:22;99642.03;;;0.43;89.07
75656;BME280;64252;51.094;13.714;2022-12-10T11:21:50;99640.22;;;0.47;88.62
75656;BME280;64252;51.094;13.714;2022-12-10T11:24:18;99637.78;;;0.46;89.22
75656;BME280;64252;51.094;13.714;2022-12-10T11:29:57;99643.00;;;0.47;89.83
75656;BME280;64252;51.094;13.714;2022-12-10T11:32:51;99652.72;;;0.53;89.61
75656;BME280;64252;51.094;13.714;2022-12-10T11:35:43;99643.13;;;0.51;89.52
75656;BME280;64252;51.094;13.714;2022-12-10T11:38:25;99648.81;;;0.54;88.65
75656;BME280;64252;51.094;13.714;2022-12-10T11:43:51;99643.25;;;0.54;88.86
75656;BME280;64252;51.094;13.714;2022-12-10T11:52:16;99650.16;;;0.48;87.98
75656;BME280;64252;51.094;13.714;2022-12-10T11:55:27;99646.25;;;0.49;88.63
75656;BME280;64252;51.094;13.714;2022-12-10T12:00:20;99639.78;;;0.57;88.54
75656;BME280;64252;51.094;13.714;2022-12-10T12:11:04;99651.59;;;0.54;87.53
75656;BME280;64252;51.094;13.714;2022-12-10T12:13:37;99648.81;;;0.54;88.00
75656;BME280;64252;51.094;13.714;2022-12-10T12:16:14;99650.22;;;0.60;88.22
75656;BME280;64252;51.094;13.714;2022-12-10T12:18:51;99644.47;;;0.65;87.92
75656;BME280;64252;51.094;13.714;2022-12-10T12:21:20;99645.63;;;0.64;87.94
75656;BME280;64252;51.094;13.714;2022-12-10T12:23:59;99654.41;;;0.66;88.23
75656;BME280;64252;51.094;13.714;2022-12-10T12:26:35;99654.88;;;0.68;88.01
75656;BME280;64252;51.094;13.714;2022-12-10T12:31:53;99649.66;;;0.67;87.33
75656;BME280;64252;51.094;13.714;2022-12-10T12:34:25;99649.81;;;0.70;87.52
75656;BME280;64252;51.094;13.714;2022-12-10T12:36:52;99647.69;;;0.67;87.23
75656;BME280;64252;51.094;13.714;2022-12-10T12:39:27;99642.63;;;0.69;88.46
75656;BME280;64252;51.094;13.714;2022-12-10T12:42:17;99635.56;;;0.72;88.34
75656;BME280;64252;51.094;13.714;2022-12-10T12:45:02;99648.63;;;0.71;88.21
75656;BME280;64252;51.094;13.714;2022-12-10T12:49:56;99640.25;;;0.59;87.72
75656;BME280;64252;51.094;13.714;2022-12-10T12:52:34;99634.84;;;0.63;88.34
75656;BME280;64252;51.094;13.714;2022-12-10T12:55:12;99637.16;;;0.61;87.88
75656;BME280;64252;51.094;13.714;2022-12-10T13:00:30;99645.34;;;0.57;88.10
75656;BME280;64252;51.094;13.714;2022-12-10T13:05:38;99643.53;;;0.61;88.75
75656;BME280;64252;51.094;13.714;2022-12-10T13:11:16;99642.94;;;0.56;88.74
75656;BME280;64252;51.094;13.714;2022-12-10T13:14:04;99653.44;;;0.50;88.58
75656;BME280;64252;51.094;13.714;2022-12-10T13:19:25;99655.88;;;0.52;88.37
75656;BME280;64252;51.094;13.714;2022-12-10T13:29:53;99666.81;;;0.48;87.90
75656;BME280;64252;51.094;13.714;2022-12-10T13:37:34;99672.38;;;0.48;88.50
75656;BME280;64252;51.094;13.714;2022-12-10T13:42:36;99668.00;;;0.47;88.25
75656;BME280;64252;51.094;13.714;2022-12-10T13:47:49;99681.72;;;0.43;89.08
75656;BME280;64252;51.094;13.714;2022-12-10T13:50:36;99682.09;;;0.42;89.29
75656;BME280;64252;51.094;13.714;2022-12-10T13:55:59;99689.25;;;0.43;89.63
75656;BME280;64252;51.094;13.714;2022-12-10T13:59:06;99688.66;;;0.37;89.49
75656;BME280;64252;51.094;13.714;2022-12-10T14:07:22;99681.34;;;0.33;88.66
75656;BME280;64252;51.094;13.714;2022-12-10T14:09:54;99689.69;;;0.33;89.42
75656;BME280;64252;51.094;13.714;2022-12-10T14:12:26;99690.13;;;0.35;89.13
75656;BME280;64252;51.094;13.714;2022-12-10T14:15:03;99691.28;;;0.34;89.15
75656;BME280;64252;51.094;13.714;2022-12-10T14:17:40;99684.72;;;0.38;88.30
75656;BME280;64252;51.094;13.714;2022-12-10T14:20:13;99690.34;;;0.30;89.13
75656;BME280;64252;51.094;13.714;2022-12-10T14:22:48;99698.66;;;0.30;89.09
75656;BME280;64252;51.094;13.714;2022-12-10T14:25:19;99687.75;;;0.25;88.89
75656;BME280;64252;51.094;13.714;2022-12-10T14:27:49;99694.44;;;0.24;89.00
75656;BME280;64252;51.094;13.714;2022-12-10T14:30:19;99701.38;;;0.18;89.04
75656;BME280;64252;51.094;13.714;2022-12-10T14:32:46;99695.81;;;0.18;89.17
75656;BME280;64252;51.094;13.714;2022-12-10T14:35:14;99695.81;;;0.18;89.78
75656;BME280;64252;51.094;13.714;2022-12-10T14:37:43;99698.09;;;0.16;89.29
75656;BME280;64252;51.094;13.714;2022-12-10T14:40:21;99699.94;;;0.12;89.59
75656;BME280;64252;51.094;13.714;2022-12-10T14:42:49;99708.25;;;0.12;90.34
75656;BME280;64252;51.094;13.714;2022-12-10T14:45:15;99713.50;;;0.13;89.72
75656;BME280;64252;51.094;13.714;2022-12-10T14:47:41;99716.47;;;0.08;89.55
75656;BME280;64252;51.094;13.714;2022-12-10T14:50:12;99720.38;;;0.07;90.42
75656;BME280;64252;51.094;13.714;2022-12-10T14:52:50;99715.97;;;0.06;89.75
75656;BME280;64252;51.094;13.714;2022-12-10T14:55:19;99718.13;;;0.00;90.83